createdAt,value
2018-10-12T00:00:57.056Z,17.60
2018-10-12T00:03:25.688Z,17.60
2018-10-12T00:05:54.457Z,17.60
2018-10-12T00:08:22.949Z,17.60
2018-10-12T00:10:51.562Z,17.60
2018-10-12T00:13:20.181Z,17.60
2018-10-12T00:15:48.938Z,17.60
2018-10-12T00:18:17.812Z,17.70
2018-10-12T00:20:47.180Z,17.70
2018-10-12T00:23:15.786Z,17.70
2018-10-12T00:25:44.482Z,17.70
2018-10-12T00:28:13.359Z,17.80
2018-10-12T00:30:42.087Z,17.90
2018-10-12T00:33:10.687Z,18.00
2018-10-12T00:35:39.501Z,18.10
2018-10-12T00:38:07.945Z,18.20
2018-10-12T00:40:36.616Z,18.20
2018-10-12T00:43:05.556Z,18.30
2018-10-12T00:45:34.000Z,18.30
2018-10-12T00:48:02.808Z,18.30
2018-10-12T00:50:32.327Z,18.40
2018-10-12T00:53:01.138Z,18.40
2018-10-12T00:55:31.462Z,18.50
2018-10-12T00:57:59.637Z,18.50
2018-10-12T01:00:27.810Z,18.60
2018-10-12T01:02:56.705Z,18.60
2018-10-12T01:05:25.079Z,18.70
2018-10-12T01:07:53.608Z,18.70
2018-10-12T01:10:22.169Z,18.70
2018-10-12T01:12:50.737Z,18.70
2018-10-12T01:15:19.413Z,18.70
2018-10-12T01:17:47.884Z,18.70
2018-10-12T01:20:16.374Z,18.70
2018-10-12T01:22:45.315Z,18.70
2018-10-12T01:25:13.951Z,18.60
2018-10-12T01:27:42.546Z,18.50
2018-10-12T01:30:11.177Z,18.50
2018-10-12T01:32:45.350Z,18.50
2018-10-12T01:35:14.895Z,18.40
2018-10-12T01:37:43.703Z,18.30
2018-10-12T01:40:13.297Z,18.30
2018-10-12T01:42:42.362Z,18.20
2018-10-12T01:45:10.840Z,18.10
2018-10-12T01:47:39.630Z,18.00
2018-10-12T01:50:08.008Z,17.90
2018-10-12T01:52:36.649Z,17.90
2018-10-12T01:55:05.143Z,17.80
2018-10-12T01:57:33.934Z,17.70
2018-10-12T02:00:03.238Z,17.80
2018-10-12T02:02:31.736Z,17.90
2018-10-12T02:05:00.193Z,17.90
2018-10-12T02:07:29.138Z,18.00
2018-10-12T02:09:57.800Z,18.00
2018-10-12T02:12:26.223Z,17.90
2018-10-12T02:14:55.081Z,18.00
2018-10-12T02:17:23.852Z,18.10
2018-10-12T02:19:52.384Z,18.10
2018-10-12T02:22:20.844Z,18.10
2018-10-12T02:24:49.347Z,18.10
2018-10-12T02:27:17.913Z,18.20
2018-10-12T02:29:46.757Z,18.20
2018-10-12T02:32:15.837Z,18.30
2018-10-12T02:34:44.746Z,18.30
2018-10-12T02:37:13.448Z,18.30
2018-10-12T02:39:42.104Z,18.30
2018-10-12T02:42:10.914Z,18.20
2018-10-12T02:44:39.648Z,18.20
2018-10-12T02:47:08.245Z,18.10
2018-10-12T02:49:37.065Z,18.10
2018-10-12T02:52:05.780Z,18.10
2018-10-12T02:54:34.484Z,18.10
2018-10-12T02:57:03.675Z,18.00
2018-10-12T02:59:32.001Z,18.00
2018-10-12T03:02:00.958Z,17.90
2018-10-12T03:04:29.379Z,17.90
2018-10-12T03:06:57.934Z,17.90
2018-10-12T03:09:26.625Z,17.90
2018-10-12T03:11:55.605Z,17.90
2018-10-12T03:14:24.370Z,17.80
2018-10-12T03:16:53.115Z,17.70
2018-10-12T03:19:21.658Z,17.70
2018-10-12T03:21:50.122Z,17.80
2018-10-12T03:24:18.973Z,17.80
2018-10-12T03:26:47.629Z,17.70
2018-10-12T03:29:16.262Z,17.70
2018-10-12T03:31:44.995Z,17.70
2018-10-12T03:34:13.870Z,17.60
2018-10-12T03:36:42.546Z,17.60
2018-10-12T03:39:11.669Z,17.60
2018-10-12T03:41:40.543Z,17.60
2018-10-12T03:44:09.093Z,17.50
2018-10-12T03:46:37.659Z,17.40
2018-10-12T03:49:06.247Z,17.30
2018-10-12T03:51:34.922Z,17.30
2018-10-12T03:54:03.637Z,17.30
2018-10-12T03:56:32.762Z,17.30
2018-10-12T03:59:01.135Z,17.30
2018-10-12T04:01:30.039Z,17.30
2018-10-12T04:03:58.387Z,17.20
2018-10-12T04:06:27.242Z,17.20
2018-10-12T04:08:56.030Z,17.20
2018-10-12T04:11:24.611Z,17.10
2018-10-12T04:13:53.488Z,17.10
2018-10-12T04:16:22.292Z,17.10
2018-10-12T04:18:50.827Z,17.10
2018-10-12T04:21:19.927Z,17.10
2018-10-12T04:23:48.657Z,17.00
2018-10-12T04:26:17.450Z,17.00
2018-10-12T04:28:46.105Z,17.00
2018-10-12T04:31:14.771Z,16.90
2018-10-12T04:33:44.277Z,16.90
2018-10-12T04:36:12.656Z,16.80
2018-10-12T04:38:46.977Z,16.80
2018-10-12T04:41:18.521Z,16.80
2018-10-12T04:43:47.979Z,16.70
2018-10-12T04:46:19.097Z,16.60
2018-10-12T04:48:48.021Z,16.50
2018-10-12T04:51:18.336Z,16.50
2018-10-12T04:53:47.109Z,16.60
2018-10-12T04:56:17.970Z,16.60
2018-10-12T04:58:46.190Z,16.50
2018-10-12T05:01:14.617Z,16.50
2018-10-12T05:03:43.230Z,16.50
2018-10-12T05:06:11.875Z,16.40
2018-10-12T05:08:40.303Z,16.40
2018-10-12T05:11:08.526Z,16.40
2018-10-12T05:13:37.442Z,16.30
2018-10-12T05:16:06.866Z,16.30
2018-10-12T05:18:35.297Z,16.40
2018-10-12T05:21:04.320Z,16.40
2018-10-12T05:23:32.546Z,16.40
2018-10-12T05:26:01.263Z,16.40
2018-10-12T05:28:31.792Z,16.40
2018-10-12T05:30:59.963Z,16.40
2018-10-12T05:33:28.118Z,16.40
2018-10-12T05:35:56.403Z,16.30
2018-10-12T05:38:25.662Z,16.30
2018-10-12T05:40:53.823Z,16.30
2018-10-12T05:43:22.393Z,16.20
2018-10-12T05:45:51.071Z,16.20
2018-10-12T05:48:25.713Z,16.20
2018-10-12T05:50:54.558Z,16.20
2018-10-12T05:53:23.655Z,16.10
2018-10-12T05:55:52.927Z,16.10
2018-10-12T05:58:21.615Z,16.10
2018-10-12T06:00:50.509Z,16.10
2018-10-12T06:03:19.227Z,16.10
2018-10-12T06:05:48.255Z,16.20
2018-10-12T06:08:18.101Z,16.30
2018-10-12T06:10:46.343Z,16.30
2018-10-12T06:13:14.845Z,16.30
2018-10-12T06:15:43.540Z,16.40
2018-10-12T06:18:12.900Z,16.40
2018-10-12T06:20:41.388Z,16.50
2018-10-12T06:23:09.667Z,16.50
2018-10-12T06:25:38.375Z,16.60
2018-10-12T06:28:07.263Z,16.60
2018-10-12T06:30:36.102Z,16.60
2018-10-12T06:33:04.608Z,16.60
2018-10-12T06:35:33.542Z,16.60
2018-10-12T06:38:02.409Z,16.70
2018-10-12T06:40:31.774Z,16.70
2018-10-12T06:43:00.270Z,16.70
2018-10-12T06:45:28.674Z,16.80
2018-10-12T06:47:57.191Z,16.80
2018-10-12T06:50:26.018Z,16.80
2018-10-12T06:52:54.633Z,16.90
2018-10-12T06:55:24.249Z,16.90
2018-10-12T06:57:53.579Z,17.00
2018-10-12T07:00:24.023Z,17.00
2018-10-12T07:02:52.756Z,17.10
2018-10-12T07:05:21.164Z,17.10
2018-10-12T07:07:49.620Z,17.20
2018-10-12T07:10:17.791Z,17.30
2018-10-12T07:12:45.963Z,17.30
2018-10-12T07:15:14.119Z,17.40
2018-10-12T07:17:42.431Z,17.50
2018-10-12T07:20:11.229Z,17.60
2018-10-12T07:22:39.692Z,18.00
2018-10-12T07:25:09.404Z,18.40
2018-10-12T07:27:39.515Z,18.70
2018-10-12T07:30:08.560Z,19.10
2018-10-12T07:32:37.604Z,20.00
2018-10-12T07:35:06.683Z,20.70
2018-10-12T07:37:36.274Z,21.30
2018-10-12T07:40:05.990Z,21.90
2018-10-12T07:42:36.096Z,22.30
2018-10-12T07:45:06.355Z,22.50
2018-10-12T07:47:35.378Z,22.70
2018-10-12T07:50:04.522Z,22.80
2018-10-12T07:52:33.641Z,23.20
2018-10-12T07:55:02.650Z,23.70
2018-10-12T07:57:32.758Z,24.00
2018-10-12T08:00:02.553Z,24.30
2018-10-12T08:02:32.607Z,24.70
2018-10-12T08:05:02.707Z,25.30
2018-10-12T08:07:31.790Z,25.30
2018-10-12T08:10:01.452Z,25.10
2018-10-12T08:12:30.526Z,25.50
2018-10-12T08:14:59.742Z,25.80
2018-10-12T08:17:29.683Z,25.70
2018-10-12T08:19:59.896Z,26.10
2018-10-12T08:22:30.116Z,26.50
2018-10-12T08:25:00.013Z,26.40
2018-10-12T08:27:29.792Z,26.50
2018-10-12T08:30:00.242Z,26.90
2018-10-12T08:32:30.919Z,27.40
2018-10-12T08:35:00.628Z,27.40
2018-10-12T08:37:30.363Z,26.80
2018-10-12T08:40:00.453Z,27.30
2018-10-12T08:42:30.567Z,27.30
2018-10-12T08:44:59.742Z,27.20
2018-10-12T08:47:29.079Z,27.40
2018-10-12T08:49:58.319Z,27.10
2018-10-12T08:52:27.778Z,27.00
2018-10-12T08:54:57.662Z,27.30
2018-10-12T08:57:27.188Z,27.30
2018-10-12T08:59:56.561Z,27.80
2018-10-12T09:02:25.878Z,28.00
2018-10-12T09:04:55.211Z,27.90
2018-10-12T09:07:24.519Z,28.20
2018-10-12T09:09:53.699Z,28.20
2018-10-12T09:12:22.976Z,27.70
2018-10-12T09:14:53.075Z,27.30
2018-10-12T09:17:23.332Z,27.10
2018-10-12T09:19:53.085Z,27.20
2018-10-12T09:22:23.160Z,27.60
2018-10-12T09:24:52.827Z,27.90
2018-10-12T09:27:22.168Z,27.80
2018-10-12T09:29:51.799Z,26.90
2018-10-12T09:32:21.939Z,27.10
2018-10-12T09:34:51.690Z,27.20
2018-10-12T09:37:21.272Z,27.20
2018-10-12T09:39:51.189Z,27.10
2018-10-12T09:42:25.860Z,26.40
2018-10-12T09:44:55.206Z,26.10
2018-10-12T09:47:24.223Z,27.00
2018-10-12T09:49:53.372Z,27.60
2018-10-12T09:52:22.464Z,28.30
2018-10-12T09:54:52.365Z,28.30
2018-10-12T09:57:26.352Z,28.10
2018-10-12T09:59:56.166Z,27.90
2018-10-12T10:02:30.648Z,27.90
2018-10-12T10:05:04.957Z,28.10
2018-10-12T10:07:34.634Z,28.40
2018-10-12T10:23:03.181Z,27.90
2018-10-12T10:25:32.240Z,28.50
2018-10-12T10:28:01.308Z,28.00
2018-10-12T10:30:30.459Z,28.40
2018-10-12T10:32:59.491Z,28.10
2018-10-12T10:35:28.578Z,27.60
2018-10-12T10:37:57.762Z,27.90
2018-10-12T10:40:26.822Z,27.50
2018-10-12T10:42:56.121Z,28.00
2018-10-12T10:45:25.832Z,28.10
2018-10-12T10:47:55.542Z,27.70
2018-10-12T10:50:25.033Z,28.00
2018-10-12T10:52:54.440Z,27.30
2018-10-12T10:55:23.783Z,28.00
2018-10-12T10:57:52.834Z,27.40
2018-10-12T11:00:21.998Z,26.80
2018-10-12T11:02:51.078Z,26.40
2018-10-12T11:05:20.204Z,26.40
2018-10-12T11:07:49.329Z,26.30
2018-10-12T11:10:18.551Z,26.00
2018-10-12T11:12:48.199Z,26.10
2018-10-12T11:15:17.805Z,26.40
2018-10-12T11:17:47.380Z,27.00
2018-10-12T11:20:16.902Z,27.20
2018-10-12T11:22:46.727Z,27.40
2018-10-12T11:25:15.883Z,27.30
2018-10-12T11:27:44.960Z,27.50
2018-10-12T11:30:14.049Z,27.60
2018-10-12T11:32:43.770Z,27.70
2018-10-12T11:35:12.847Z,27.40
2018-10-12T11:37:42.001Z,27.50
2018-10-12T11:40:11.609Z,27.60
2018-10-12T11:42:51.945Z,27.30
2018-10-12T11:45:21.085Z,26.90
2018-10-12T11:47:50.237Z,27.30
2018-10-12T11:50:19.345Z,27.50
2018-10-12T11:52:48.720Z,27.30
2018-10-12T11:55:18.540Z,27.00
2018-10-12T11:57:47.901Z,26.60
2018-10-12T12:00:17.508Z,26.40
2018-10-12T12:02:47.608Z,26.70
2018-10-12T12:05:16.723Z,26.80
2018-10-12T12:07:45.792Z,27.00
2018-10-12T12:10:14.887Z,27.40
2018-10-12T12:12:43.968Z,27.60
2018-10-12T12:15:13.049Z,27.30
2018-10-12T12:17:42.320Z,27.60
2018-10-12T12:20:11.685Z,27.90
2018-10-12T12:22:41.293Z,27.90
2018-10-12T12:25:10.946Z,27.80
2018-10-12T12:27:41.253Z,27.50
2018-10-12T12:30:10.781Z,27.40
2018-10-12T12:32:41.053Z,27.30
2018-10-12T12:35:11.034Z,27.30
2018-10-12T12:37:40.213Z,27.40
2018-10-12T12:40:10.811Z,27.30
2018-10-12T12:42:41.077Z,27.40
2018-10-12T12:45:11.434Z,27.40
2018-10-12T12:47:40.756Z,27.40
2018-10-12T12:50:10.414Z,27.40
2018-10-12T12:52:39.598Z,27.20
2018-10-12T12:55:09.011Z,27.00
2018-10-12T12:57:39.786Z,26.90
2018-10-12T13:00:09.646Z,26.50
2018-10-12T13:02:39.107Z,26.40
2018-10-12T13:05:08.522Z,26.20
2018-10-12T13:07:37.738Z,26.10
2018-10-12T13:10:06.945Z,26.00
2018-10-12T13:12:36.228Z,26.00
2018-10-12T13:15:06.112Z,26.00
2018-10-12T13:17:35.969Z,25.90
2018-10-12T13:20:05.648Z,25.90
2018-10-12T13:22:35.379Z,25.80
2018-10-12T13:25:05.252Z,25.80
2018-10-12T13:27:34.600Z,25.80
2018-10-12T13:30:03.975Z,25.80
2018-10-12T13:32:33.240Z,25.80
2018-10-12T13:35:02.450Z,25.80
2018-10-12T13:37:31.823Z,25.80
2018-10-12T13:40:02.769Z,25.90
2018-10-12T13:42:32.722Z,26.00
2018-10-12T13:45:02.108Z,26.10
2018-10-12T13:47:31.260Z,26.10
2018-10-12T13:50:00.458Z,26.10
2018-10-12T13:52:29.483Z,26.10
2018-10-12T13:54:58.691Z,26.10
2018-10-12T13:57:27.726Z,26.20
2018-10-12T13:59:56.884Z,26.20
2018-10-12T14:02:26.017Z,26.30
2018-10-12T14:04:55.163Z,26.30
2018-10-12T14:07:24.595Z,26.30
2018-10-12T14:09:54.106Z,26.30
2018-10-12T14:12:24.421Z,26.20
2018-10-12T14:14:54.047Z,26.10
2018-10-12T14:17:23.448Z,26.00
2018-10-12T14:19:52.705Z,25.80
2018-10-12T14:22:21.736Z,25.70
2018-10-12T14:24:50.857Z,25.60
2018-10-12T14:27:19.979Z,25.60
2018-10-12T14:29:49.023Z,25.50
2018-10-12T14:32:18.123Z,25.40
2018-10-12T14:34:47.242Z,25.30
2018-10-12T14:37:16.575Z,25.30
2018-10-12T14:39:45.912Z,25.20
2018-10-12T14:42:15.560Z,25.20
2018-10-12T14:44:45.234Z,25.10
2018-10-12T14:47:14.667Z,25.10
2018-10-12T14:49:43.947Z,25.10
2018-10-12T14:52:13.098Z,25.10
2018-10-12T14:54:42.173Z,25.10
2018-10-12T14:57:16.468Z,25.10
2018-10-12T14:59:45.955Z,25.00
2018-10-12T15:02:15.053Z,25.00
2018-10-12T15:04:44.506Z,25.00
2018-10-12T15:07:13.552Z,24.90
2018-10-12T15:09:42.655Z,24.90
2018-10-12T15:12:11.971Z,24.90
2018-10-12T15:14:52.158Z,24.90
2018-10-12T15:17:21.300Z,24.80
2018-10-12T15:19:50.386Z,24.80
2018-10-12T15:22:19.456Z,24.80
2018-10-12T15:24:48.475Z,24.80
2018-10-12T15:27:17.560Z,24.70
2018-10-12T15:29:46.695Z,24.80
2018-10-12T15:32:15.884Z,24.80
2018-10-12T15:34:45.411Z,24.80
2018-10-12T15:37:15.239Z,24.70
2018-10-12T15:39:45.034Z,24.70
2018-10-12T15:42:14.381Z,24.60
2018-10-12T15:44:43.602Z,24.50
2018-10-12T15:47:12.638Z,24.50
2018-10-12T15:49:41.763Z,24.40
2018-10-12T15:52:10.923Z,24.40
2018-10-12T15:54:39.975Z,24.30
2018-10-12T15:57:09.152Z,24.30
2018-10-12T15:59:38.230Z,24.20
2018-10-12T16:02:07.301Z,24.10
2018-10-12T16:04:36.770Z,24.10
2018-10-12T16:07:06.641Z,24.00
2018-10-12T16:09:36.450Z,23.90
2018-10-12T16:12:06.078Z,23.80
2018-10-12T16:14:35.237Z,23.70
2018-10-12T16:17:04.231Z,23.70
2018-10-12T16:19:33.343Z,23.60
2018-10-12T16:22:02.411Z,23.50
2018-10-12T16:24:31.481Z,23.40
2018-10-12T16:27:00.679Z,23.30
2018-10-12T16:29:29.711Z,23.20
2018-10-12T16:31:59.253Z,23.10
2018-10-12T16:34:28.696Z,23.00
2018-10-12T16:36:58.321Z,22.90
2018-10-12T16:39:28.060Z,22.80
2018-10-12T16:41:57.785Z,22.70
2018-10-12T16:44:26.914Z,22.60
2018-10-12T16:46:56.024Z,22.50
2018-10-12T16:49:25.165Z,22.40
2018-10-12T16:51:54.228Z,22.40
2018-10-12T16:54:23.318Z,22.30
2018-10-12T16:56:52.400Z,22.20
2018-10-12T16:59:21.538Z,22.20
2018-10-12T17:01:50.674Z,22.10
2018-10-12T17:04:20.134Z,22.10
2018-10-12T17:06:49.522Z,22.00
2018-10-12T17:09:18.926Z,22.00
2018-10-12T17:11:48.367Z,21.90
2018-10-12T17:14:18.082Z,21.90
2018-10-12T17:16:47.797Z,21.80
2018-10-12T17:19:16.887Z,21.80
2018-10-12T17:21:45.918Z,21.70
2018-10-12T17:24:15.099Z,21.70
2018-10-12T17:26:44.196Z,21.60
2018-10-12T17:29:13.328Z,21.50
2018-10-12T17:31:42.378Z,21.50
2018-10-12T17:34:11.463Z,21.50
2018-10-12T17:36:40.570Z,21.40
2018-10-12T17:39:11.983Z,21.40
2018-10-12T17:41:41.630Z,21.40
2018-10-12T17:44:11.420Z,21.30
2018-10-12T17:46:40.525Z,21.30
2018-10-12T17:49:09.695Z,21.30
2018-10-12T17:51:39.000Z,21.20
2018-10-12T17:54:08.075Z,21.20
2018-10-12T17:56:37.149Z,21.10
2018-10-12T17:59:06.424Z,21.10
2018-10-12T18:01:35.689Z,21.00
2018-10-12T18:04:04.908Z,21.10
2018-10-12T18:06:34.661Z,21.10
2018-10-12T18:09:04.304Z,21.10
2018-10-12T18:11:33.909Z,21.10
2018-10-12T18:14:03.748Z,21.10
2018-10-12T18:16:32.852Z,21.10
2018-10-12T18:19:01.896Z,21.00
2018-10-12T18:21:30.955Z,21.00
2018-10-12T18:23:59.999Z,21.00
2018-10-12T18:26:29.559Z,21.00
2018-10-12T18:28:58.593Z,21.00
2018-10-12T18:31:27.660Z,21.00
2018-10-12T18:33:56.795Z,21.00
2018-10-12T18:36:26.321Z,21.00
2018-10-12T18:38:55.832Z,21.00
2018-10-12T18:41:25.304Z,21.00
2018-10-12T18:43:54.068Z,21.00
2018-10-12T18:46:23.016Z,20.90
2018-10-12T18:48:51.786Z,20.90
2018-10-12T18:51:20.640Z,20.80
2018-10-12T18:53:49.534Z,20.80
2018-10-12T18:56:18.174Z,20.80
2018-10-12T18:58:46.777Z,20.70
2018-10-12T19:01:15.642Z,20.70
2018-10-12T19:03:44.389Z,20.70
2018-10-12T19:06:13.314Z,20.70
2018-10-12T19:08:41.759Z,20.70
2018-10-12T19:11:10.646Z,20.70
2018-10-12T19:13:39.806Z,20.70
2018-10-12T19:16:08.476Z,20.70
2018-10-12T19:18:37.083Z,20.70
2018-10-12T19:21:05.761Z,20.70
2018-10-12T19:23:36.615Z,20.70
2018-10-12T19:26:05.968Z,20.70
2018-10-12T19:28:34.580Z,20.70
2018-10-12T19:31:03.650Z,20.70
2018-10-12T19:33:31.867Z,20.80
2018-10-12T19:36:00.040Z,20.70
2018-10-12T19:38:28.396Z,20.70
2018-10-12T19:40:56.828Z,20.60
2018-10-12T19:43:25.281Z,20.60
2018-10-12T19:45:54.151Z,20.60
2018-10-12T19:48:22.599Z,20.60
2018-10-12T19:50:51.443Z,20.40
2018-10-12T19:53:20.382Z,20.60
2018-10-12T19:55:48.827Z,20.50
2018-10-12T19:58:17.715Z,20.50
2018-10-12T20:00:46.408Z,20.50
2018-10-12T20:03:15.299Z,20.40
2018-10-12T20:05:44.235Z,20.40
2018-10-12T20:08:12.964Z,20.40
2018-10-12T20:10:41.715Z,20.40
2018-10-12T20:13:10.374Z,20.40
2018-10-12T20:15:38.980Z,20.40
2018-10-12T20:18:07.796Z,20.30
2018-10-12T20:20:37.057Z,20.30
2018-10-12T20:23:05.619Z,20.20
2018-10-12T20:25:34.416Z,20.20
2018-10-12T20:28:02.921Z,20.20
2018-10-12T20:30:31.382Z,20.20
2018-10-12T20:33:00.449Z,20.20
2018-10-12T20:35:29.218Z,20.20
2018-10-12T20:37:57.871Z,20.20
2018-10-12T20:40:27.058Z,20.20
2018-10-12T20:42:55.470Z,20.20
2018-10-12T20:45:24.110Z,20.30
2018-10-12T20:47:53.249Z,20.30
2018-10-12T20:50:21.957Z,20.30
2018-10-12T20:52:50.727Z,20.30
2018-10-12T20:55:19.793Z,20.30
2018-10-12T20:57:49.454Z,20.30
2018-10-12T21:00:18.739Z,20.20
2018-10-12T21:02:47.084Z,20.20
2018-10-12T21:05:15.347Z,20.30
2018-10-12T21:07:44.541Z,20.20
2018-10-12T21:10:12.697Z,20.20
2018-10-12T21:12:41.282Z,20.20
2018-10-12T21:15:09.671Z,20.10
2018-10-12T21:17:38.086Z,20.20
2018-10-12T21:20:07.039Z,20.10
2018-10-12T21:22:35.746Z,20.10
2018-10-12T21:25:04.548Z,20.10
2018-10-12T21:27:33.194Z,20.10
2018-10-12T21:30:01.846Z,20.00
2018-10-12T21:32:30.689Z,20.00
2018-10-12T21:34:59.487Z,19.90
2018-10-12T21:37:28.082Z,19.90
2018-10-12T21:39:56.617Z,19.90
2018-10-12T21:42:25.238Z,19.90
2018-10-12T21:44:53.869Z,19.90
2018-10-12T21:47:22.717Z,19.90
2018-10-12T21:49:51.519Z,19.90
2018-10-12T21:52:20.395Z,19.90
2018-10-12T21:54:49.298Z,19.90
2018-10-12T21:57:18.107Z,19.90
2018-10-12T21:59:47.147Z,19.80
2018-10-12T22:02:15.991Z,19.80
2018-10-12T22:04:44.702Z,19.80
2018-10-12T22:07:13.652Z,19.80
2018-10-12T22:09:43.282Z,19.80
2018-10-12T22:12:11.554Z,19.90
2018-10-12T22:14:39.886Z,19.90
2018-10-12T22:17:08.476Z,19.90
2018-10-12T22:19:38.223Z,20.00
2018-10-12T22:22:06.894Z,20.10
2018-10-12T22:24:35.362Z,20.10
2018-10-12T22:27:04.009Z,20.10
2018-10-12T22:29:32.694Z,20.10
2018-10-12T22:32:01.186Z,20.10
2018-10-12T22:34:29.810Z,20.10
2018-10-12T22:36:58.420Z,20.10
2018-10-12T22:39:27.092Z,20.10
2018-10-12T22:41:55.383Z,20.00
2018-10-12T22:44:24.247Z,20.00
2018-10-12T22:46:52.887Z,20.00
2018-10-12T22:49:21.842Z,19.90
2018-10-12T22:51:50.528Z,19.90
2018-10-12T22:54:19.310Z,19.80
2018-10-12T22:56:48.183Z,19.90
2018-10-12T22:59:16.903Z,19.90
2018-10-12T23:01:45.723Z,19.90
2018-10-12T23:04:14.458Z,19.90
2018-10-12T23:06:43.462Z,19.80
2018-10-12T23:09:12.166Z,19.80
2018-10-12T23:11:40.673Z,19.70
2018-10-12T23:14:09.851Z,19.70
2018-10-12T23:16:38.483Z,19.70
2018-10-12T23:19:07.229Z,19.70
2018-10-12T23:21:35.862Z,19.60
2018-10-12T23:24:04.359Z,19.60
2018-10-12T23:26:32.950Z,19.60
2018-10-12T23:29:01.741Z,19.60
2018-10-12T23:31:30.682Z,19.60
2018-10-12T23:34:00.962Z,19.60
2018-10-12T23:36:29.423Z,19.60
2018-10-12T23:38:58.005Z,19.50
2018-10-12T23:41:26.792Z,19.50
2018-10-12T23:43:55.299Z,19.60
2018-10-12T23:46:23.710Z,19.50
2018-10-12T23:48:52.384Z,19.60
2018-10-12T23:51:20.694Z,19.50
2018-10-12T23:53:49.566Z,19.50
2018-10-12T23:56:18.342Z,19.50
2018-10-12T23:58:47.527Z,19.50
